sensor_id;sensor_type;location;lat;lon;timestamp;pressure;altitude;pressure_sealevel;temperature;humidity
76106;BME280;64832;45.274;5.880;2023-09-07T00:01:25;99126.41;;;26.03;56.50
76106;BME280;64832;45.274;5.880;2023-09-07T00:03:50;99119.28;;;26.02;56.32
76106;BME280;64832;45.274;5.880;2023-09-07T00:06:16;99120.09;;;26.02;56.31
76106;BME280;64832;45.274;5.880;2023-09-07T00:08:41;99121.75;;;26.03;56.13
76106;BME280;64832;45.274;5.880;2023-09-07T00:11:07;99124.75;;;26.02;56.06
76106;BME280;64832;45.274;5.880;2023-09-07T00:13:33;99125.59;;;26.02;56.12
76106;BME280;64832;45.274;5.880;2023-09-07T00:16:03;99124.50;;;26.03;55.94
76106;BME280;64832;45.274;5.880;2023-09-07T00:18:30;99125.59;;;26.02;56.00
76106;BME280;64832;45.274;5.880;2023-09-07T00:20:55;99127.50;;;26.02;56.10
76106;BME280;64832;45.274;5.880;2023-09-07T00:23:21;99131.06;;;26.02;56.07
76106;BME280;64832;45.274;5.880;2023-09-07T00:25:46;99128.34;;;26.02;55.98
76106;BME280;64832;45.274;5.880;2023-09-07T00:28:12;99113.81;;;26.02;56.06
76106;BME280;64832;45.274;5.880;2023-09-07T00:30:37;99106.72;;;25.96;55.54
76106;BME280;64832;45.274;5.880;2023-09-07T00:33:03;99116.84;;;26.00;55.64
76106;BME280;64832;45.274;5.880;2023-09-07T00:35:29;99117.66;;;26.01;55.89
76106;BME280;64832;45.274;5.880;2023-09-07T00:37:54;99117.66;;;26.01;55.72
76106;BME280;64832;45.274;5.880;2023-09-07T00:40:20;99115.19;;;25.99;55.65
76106;BME280;64832;45.274;5.880;2023-09-07T00:42:45;99123.41;;;25.99;55.81
76106;BME280;64832;45.274;5.880;2023-09-07T00:45:11;99118.75;;;26.00;55.57
76106;BME280;64832;45.274;5.880;2023-09-07T00:47:37;99112.44;;;25.99;55.50
76106;BME280;64832;45.274;5.880;2023-09-07T00:50:04;99117.94;;;25.99;55.57
76106;BME280;64832;45.274;5.880;2023-09-07T00:52:30;99112.75;;;25.98;55.53
76106;BME280;64832;45.274;5.880;2023-09-07T00:54:56;99117.94;;;25.99;55.53
76106;BME280;64832;45.274;5.880;2023-09-07T00:57:21;99113.00;;;25.96;55.37
76106;BME280;64832;45.274;5.880;2023-09-07T00:59:47;99116.56;;;25.97;55.50
76106;BME280;64832;45.274;5.880;2023-09-07T01:02:12;99120.66;;;25.99;55.53
76106;BME280;64832;45.274;5.880;2023-09-07T01:04:38;99115.19;;;25.99;55.66
76106;BME280;64832;45.274;5.880;2023-09-07T01:07:13;99126.97;;;26.00;55.60
76106;BME280;64832;45.274;5.880;2023-09-07T01:09:42;99122.59;;;25.99;55.54
76106;BME280;64832;45.274;5.880;2023-09-07T01:12:14;99122.88;;;25.97;55.55
76106;BME280;64832;45.274;5.880;2023-09-07T01:14:39;99105.94;;;25.90;55.57
76106;BME280;64832;45.274;5.880;2023-09-07T01:17:04;99114.66;;;25.97;55.32
76106;BME280;64832;45.274;5.880;2023-09-07T01:19:30;99111.38;;;25.95;55.58
76106;BME280;64832;45.274;5.880;2023-09-07T01:21:56;99110.25;;;25.96;55.55
76106;BME280;64832;45.274;5.880;2023-09-07T01:24:23;99111.66;;;25.94;55.46
76106;BME280;64832;45.274;5.880;2023-09-07T01:26:49;99114.94;;;25.96;55.37
76106;BME280;64832;45.274;5.880;2023-09-07T01:29:15;99107.81;;;25.95;55.39
76106;BME280;64832;45.274;5.880;2023-09-07T01:31:42;99110.56;;;25.95;55.43
76106;BME280;64832;45.274;5.880;2023-09-07T01:34:08;99105.06;;;25.95;55.41
76106;BME280;64832;45.274;5.880;2023-09-07T01:36:34;99103.41;;;25.94;55.50
76106;BME280;64832;45.274;5.880;2023-09-07T01:39:00;99112.22;;;25.96;55.20
76106;BME280;64832;45.274;5.880;2023-09-07T01:41:26;99112.47;;;25.94;55.40
76106;BME280;64832;45.274;5.880;2023-09-07T01:43:52;99116.88;;;25.95;55.13
76106;BME280;64832;45.274;5.880;2023-09-07T01:46:17;99111.66;;;25.94;55.26
76106;BME280;64832;45.274;5.880;2023-09-07T01:48:42;99114.38;;;25.94;55.34
76106;BME280;64832;45.274;5.880;2023-09-07T01:51:08;99123.44;;;25.94;55.28
76106;BME280;64832;45.274;5.880;2023-09-07T01:53:34;99109.19;;;25.92;55.50
76106;BME280;64832;45.274;5.880;2023-09-07T01:55:59;99108.91;;;25.94;55.29
76106;BME280;64832;45.274;5.880;2023-09-07T01:58:24;99106.47;;;25.92;55.30
76106;BME280;64832;45.274;5.880;2023-09-07T02:00:50;99114.69;;;25.92;55.46
76106;BME280;64832;45.274;5.880;2023-09-07T02:03:15;99112.75;;;25.93;55.48
76106;BME280;64832;45.274;5.880;2023-09-07T02:05:41;99111.94;;;25.92;55.42
76106;BME280;64832;45.274;5.880;2023-09-07T02:08:06;99109.19;;;25.92;55.58
76106;BME280;64832;45.274;5.880;2023-09-07T02:10:33;99117.41;;;25.92;55.47
76106;BME280;64832;45.274;5.880;2023-09-07T02:12:58;99110.28;;;25.91;55.52
76106;BME280;64832;45.274;5.880;2023-09-07T02:15:24;99105.63;;;25.92;55.43
76106;BME280;64832;45.274;5.880;2023-09-07T02:17:49;99104.81;;;25.91;55.59
76106;BME280;64832;45.274;5.880;2023-09-07T02:20:15;99104.28;;;25.89;55.60
76106;BME280;64832;45.274;5.880;2023-09-07T02:22:40;99118.81;;;25.90;55.79
76106;BME280;64832;45.274;5.880;2023-09-07T02:25:06;99114.41;;;25.89;55.69
76106;BME280;64832;45.274;5.880;2023-09-07T02:27:33;99116.63;;;25.87;55.94
76106;BME280;64832;45.274;5.880;2023-09-07T02:29:59;99110.31;;;25.86;55.92
76106;BME280;64832;45.274;5.880;2023-09-07T02:32:24;99115.78;;;25.86;55.90
76106;BME280;64832;45.274;5.880;2023-09-07T02:34:50;99116.09;;;25.85;55.93
76106;BME280;64832;45.274;5.880;2023-09-07T02:37:15;99116.09;;;25.85;55.86
76106;BME280;64832;45.274;5.880;2023-09-07T02:39:42;99118.84;;;25.85;55.70
76106;BME280;64832;45.274;5.880;2023-09-07T02:42:07;99112.53;;;25.84;55.77
76106;BME280;64832;45.274;5.880;2023-09-07T02:44:33;99118.84;;;25.85;55.92
76106;BME280;64832;45.274;5.880;2023-09-07T02:46:58;99118.84;;;25.85;55.78
76106;BME280;64832;45.274;5.880;2023-09-07T02:49:23;99124.31;;;25.85;55.88
76106;BME280;64832;45.274;5.880;2023-09-07T02:51:49;99123.50;;;25.84;55.93
76106;BME280;64832;45.274;5.880;2023-09-07T02:54:14;99127.84;;;25.85;55.90
76106;BME280;64832;45.274;5.880;2023-09-07T02:56:39;99120.75;;;25.84;55.69
76106;BME280;64832;45.274;5.880;2023-09-07T02:59:05;99119.91;;;25.84;55.69
76106;BME280;64832;45.274;5.880;2023-09-07T03:01:30;99127.31;;;25.83;55.87
76106;BME280;64832;45.274;5.880;2023-09-07T03:03:56;99123.75;;;25.83;55.72
76106;BME280;64832;45.274;5.880;2023-09-07T03:06:21;99117.19;;;25.84;55.73
76106;BME280;64832;45.274;5.880;2023-09-07T03:08:46;99117.72;;;25.81;55.63
76106;BME280;64832;45.274;5.880;2023-09-07T03:11:12;99116.66;;;25.82;55.94
76106;BME280;64832;45.274;5.880;2023-09-07T03:13:38;99117.47;;;25.82;55.69
76106;BME280;64832;45.274;5.880;2023-09-07T03:16:04;99122.97;;;25.82;55.82
76106;BME280;64832;45.274;5.880;2023-09-07T03:18:30;99125.69;;;25.82;55.93
76106;BME280;64832;45.274;5.880;2023-09-07T03:20:58;99124.88;;;25.82;55.61
76106;BME280;64832;45.274;5.880;2023-09-07T03:23:24;99121.56;;;25.80;55.79
76106;BME280;64832;45.274;5.880;2023-09-07T03:25:49;99121.03;;;25.78;55.89
76106;BME280;64832;45.274;5.880;2023-09-07T03:28:15;99124.31;;;25.80;55.66
76106;BME280;64832;45.274;5.880;2023-09-07T03:30:40;99122.38;;;25.80;55.60
76106;BME280;64832;45.274;5.880;2023-09-07T03:33:06;99126.25;;;25.79;55.80
76106;BME280;64832;45.274;5.880;2023-09-07T03:35:31;99122.69;;;25.79;55.37
76106;BME280;64832;45.274;5.880;2023-09-07T03:37:57;99126.25;;;25.79;55.67
76106;BME280;64832;45.274;5.880;2023-09-07T03:40:22;99120.22;;;25.77;55.69
76106;BME280;64832;45.274;5.880;2023-09-07T03:42:48;99115.03;;;25.76;55.70
76106;BME280;64832;45.274;5.880;2023-09-07T03:45:13;99118.03;;;25.74;55.74
76106;BME280;64832;45.274;5.880;2023-09-07T03:47:39;99123.78;;;25.78;55.59
76106;BME280;64832;45.274;5.880;2023-09-07T03:50:05;99110.91;;;25.73;55.48
76106;BME280;64832;45.274;5.880;2023-09-07T03:52:31;99106.25;;;25.74;55.51
76106;BME280;64832;45.274;5.880;2023-09-07T03:54:57;99113.38;;;25.75;55.44
76106;BME280;64832;45.274;5.880;2023-09-07T03:57:23;99108.72;;;25.75;55.55
76106;BME280;64832;45.274;5.880;2023-09-07T03:59:49;99110.63;;;25.75;55.57
76106;BME280;64832;45.274;5.880;2023-09-07T04:02:14;99110.09;;;25.73;55.41
76106;BME280;64832;45.274;5.880;2023-09-07T04:04:41;99118.03;;;25.74;55.57
76106;BME280;64832;45.274;5.880;2023-09-07T04:07:06;99110.91;;;25.73;55.56
76106;BME280;64832;45.274;5.880;2023-09-07T04:09:31;99111.75;;;25.74;55.49
76106;BME280;64832;45.274;5.880;2023-09-07T04:11:57;99108.19;;;25.73;55.28
76106;BME280;64832;45.274;5.880;2023-09-07T04:14:22;99112.00;;;25.72;55.09
76106;BME280;64832;45.274;5.880;2023-09-07T04:16:47;99110.38;;;25.66;55.33
76106;BME280;64832;45.274;5.880;2023-09-07T04:19:13;99114.75;;;25.72;55.28
76106;BME280;64832;45.274;5.880;2023-09-07T04:21:39;99119.41;;;25.72;55.26
76106;BME280;64832;45.274;5.880;2023-09-07T04:24:04;99114.47;;;25.68;55.31
76106;BME280;64832;45.274;5.880;2023-09-07T04:26:30;99122.69;;;25.68;55.21
76106;BME280;64832;45.274;5.880;2023-09-07T04:28:55;99131.47;;;25.71;55.36
76106;BME280;64832;45.274;5.880;2023-09-07T04:31:21;99127.38;;;25.68;55.19
76106;BME280;64832;45.274;5.880;2023-09-07T04:33:47;99119.16;;;25.68;55.42
76106;BME280;64832;45.274;5.880;2023-09-07T04:36:13;99129.84;;;25.69;55.25
76106;BME280;64832;45.274;5.880;2023-09-07T04:38:40;99127.09;;;25.69;55.29
76106;BME280;64832;45.274;5.880;2023-09-07T04:41:10;99121.06;;;25.67;55.24
76106;BME280;64832;45.274;5.880;2023-09-07T04:43:36;99127.09;;;25.69;55.21
76106;BME280;64832;45.274;5.880;2023-09-07T04:46:02;99127.09;;;25.69;55.42
76106;BME280;64832;45.274;5.880;2023-09-07T04:48:28;99127.38;;;25.68;55.47
76106;BME280;64832;45.274;5.880;2023-09-07T04:51:03;99130.13;;;25.68;55.14
76106;BME280;64832;45.274;5.880;2023-09-07T04:53:31;99133.94;;;25.67;55.31
76106;BME280;64832;45.274;5.880;2023-09-07T04:55:57;99138.59;;;25.66;55.29
76106;BME280;64832;45.274;5.880;2023-09-07T04:58:23;99129.84;;;25.64;55.27
76106;BME280;64832;45.274;5.880;2023-09-07T05:00:49;99139.72;;;25.65;55.14
76106;BME280;64832;45.274;5.880;2023-09-07T05:03:14;99142.47;;;25.65;55.29
76106;BME280;64832;45.274;5.880;2023-09-07T05:05:41;99140.81;;;25.64;55.32
76106;BME280;64832;45.274;5.880;2023-09-07T05:08:06;99141.91;;;25.63;55.25
76106;BME280;64832;45.274;5.880;2023-09-07T05:10:35;99147.38;;;25.63;55.25
76106;BME280;64832;45.274;5.880;2023-09-07T05:13:01;99153.97;;;25.62;55.24
76106;BME280;64832;45.274;5.880;2023-09-07T05:15:26;99159.47;;;25.62;55.58
76106;BME280;64832;45.274;5.880;2023-09-07T05:17:53;99168.75;;;25.61;56.02
76106;BME280;64832;45.274;5.880;2023-09-07T05:20:18;99162.75;;;25.59;55.68
76106;BME280;64832;45.274;5.880;2023-09-07T05:22:43;99164.09;;;25.42;54.86
76106;BME280;64832;45.274;5.880;2023-09-07T05:25:09;99166.63;;;25.13;54.94
76106;BME280;64832;45.274;5.880;2023-09-07T05:27:35;99167.13;;;24.85;55.46
76106;BME280;64832;45.274;5.880;2023-09-07T05:30:04;99185.94;;;24.61;55.94
76106;BME280;64832;45.274;5.880;2023-09-07T05:32:30;99174.91;;;24.36;56.29
76106;BME280;64832;45.274;5.880;2023-09-07T05:34:55;99178.13;;;24.13;56.80
76106;BME280;64832;45.274;5.880;2023-09-07T05:37:21;99184.59;;;23.96;57.44
76106;BME280;64832;45.274;5.880;2023-09-07T05:39:46;99177.41;;;23.80;57.61
76106;BME280;64832;45.274;5.880;2023-09-07T05:42:11;99177.31;;;23.65;57.98
76106;BME280;64832;45.274;5.880;2023-09-07T05:44:37;99165.75;;;23.53;58.37
76106;BME280;64832;45.274;5.880;2023-09-07T05:47:04;99181.84;;;23.45;58.80
76106;BME280;64832;45.274;5.880;2023-09-07T05:49:29;99165.34;;;23.34;59.46
76106;BME280;64832;45.274;5.880;2023-09-07T05:51:55;99180.31;;;23.27;59.77
76106;BME280;64832;45.274;5.880;2023-09-07T05:54:20;99180.53;;;23.20;60.08
76106;BME280;64832;45.274;5.880;2023-09-07T05:56:45;99185.94;;;23.15;60.67
76106;BME280;64832;45.274;5.880;2023-09-07T05:59:11;99184.25;;;23.09;60.82
76106;BME280;64832;45.274;5.880;2023-09-07T06:01:36;99180.41;;;23.05;61.23
76106;BME280;64832;45.274;5.880;2023-09-07T06:04:02;99188.84;;;23.04;61.35
76106;BME280;64832;45.274;5.880;2023-09-07T06:06:28;99194.00;;;23.00;61.99
76106;BME280;64832;45.274;5.880;2023-09-07T06:08:54;99194.53;;;22.97;62.01
76106;BME280;64832;45.274;5.880;2023-09-07T06:11:19;99184.69;;;22.96;62.36
76106;BME280;64832;45.274;5.880;2023-09-07T06:13:44;99185.75;;;22.95;62.29
76106;BME280;64832;45.274;5.880;2023-09-07T06:16:12;99180.03;;;22.92;62.57
76106;BME280;64832;45.274;5.880;2023-09-07T06:18:37;99189.03;;;22.92;62.67
76106;BME280;64832;45.274;5.880;2023-09-07T06:21:02;99186.31;;;22.92;62.96
76106;BME280;64832;45.274;5.880;2023-09-07T06:23:29;99187.38;;;22.91;63.29
76106;BME280;64832;45.274;5.880;2023-09-07T06:25:55;99187.88;;;22.88;63.31
76106;BME280;64832;45.274;5.880;2023-09-07T06:28:20;99186.81;;;22.89;63.57
76106;BME280;64832;45.274;5.880;2023-09-07T06:30:46;99190.34;;;22.90;63.72
76106;BME280;64832;45.274;5.880;2023-09-07T06:33:11;99190.94;;;22.92;63.50
76106;BME280;64832;45.274;5.880;2023-09-07T06:35:37;99181.97;;;22.96;63.67
76106;BME280;64832;45.274;5.880;2023-09-07T06:38:03;99187.97;;;22.98;63.78
76106;BME280;64832;45.274;5.880;2023-09-07T06:40:28;99190.19;;;23.01;63.53
76106;BME280;64832;45.274;5.880;2023-09-07T06:42:53;99183.66;;;23.02;63.47
76106;BME280;64832;45.274;5.880;2023-09-07T06:45:19;99191.31;;;23.05;63.68
76106;BME280;64832;45.274;5.880;2023-09-07T06:47:44;99186.41;;;23.07;63.32
76106;BME280;64832;45.274;5.880;2023-09-07T06:50:10;99186.72;;;23.11;63.54
76106;BME280;64832;45.274;5.880;2023-09-07T06:52:35;99188.66;;;23.15;63.79
76106;BME280;64832;45.274;5.880;2023-09-07T06:55:01;99192.53;;;23.19;63.32
76106;BME280;64832;45.274;5.880;2023-09-07T06:57:26;99193.66;;;23.23;63.19
76106;BME280;64832;45.274;5.880;2023-09-07T06:59:52;99184.09;;;23.26;62.94
76106;BME280;64832;45.274;5.880;2023-09-07T07:02:17;99192.88;;;23.28;63.06
76106;BME280;64832;45.274;5.880;2023-09-07T07:04:42;99187.47;;;23.33;62.96
76106;BME280;64832;45.274;5.880;2023-09-07T07:07:10;99192.97;;;23.38;62.69
76106;BME280;64832;45.274;5.880;2023-09-07T07:09:36;99191.34;;;23.42;62.77
76106;BME280;64832;45.274;5.880;2023-09-07T07:12:01;99190.84;;;23.45;62.88
76106;BME280;64832;45.274;5.880;2023-09-07T07:14:27;99193.63;;;23.50;62.50
76106;BME280;64832;45.274;5.880;2023-09-07T07:16:52;99198.00;;;23.56;62.63
76106;BME280;64832;45.274;5.880;2023-09-07T07:19:18;99210.63;;;23.62;63.00
76106;BME280;64832;45.274;5.880;2023-09-07T07:21:43;99212.53;;;23.67;63.01
76106;BME280;64832;45.274;5.880;2023-09-07T07:24:09;99213.38;;;23.67;62.70
76106;BME280;64832;45.274;5.880;2023-09-07T07:26:35;99206.56;;;23.70;62.75
76106;BME280;64832;45.274;5.880;2023-09-07T07:29:01;99211.78;;;23.71;62.82
76106;BME280;64832;45.274;5.880;2023-09-07T07:31:28;99208.78;;;23.78;62.86
76106;BME280;64832;45.274;5.880;2023-09-07T07:33:55;99215.38;;;23.82;62.83
76106;BME280;64832;45.274;5.880;2023-09-07T07:36:21;99212.13;;;23.85;62.98
76106;BME280;64832;45.274;5.880;2023-09-07T07:38:46;99217.63;;;23.90;62.79
76106;BME280;64832;45.274;5.880;2023-09-07T07:41:12;99220.09;;;23.91;62.75
76106;BME280;64832;45.274;5.880;2023-09-07T07:43:37;99218.44;;;23.90;62.40
76106;BME280;64832;45.274;5.880;2023-09-07T07:46:02;99215.44;;;23.92;62.46
76106;BME280;64832;45.274;5.880;2023-09-07T07:48:28;99212.44;;;23.93;62.76
76106;BME280;64832;45.274;5.880;2023-09-07T07:50:56;99222.03;;;23.96;62.67
76106;BME280;64832;45.274;5.880;2023-09-07T07:53:21;99215.22;;;23.98;62.72
76106;BME280;64832;45.274;5.880;2023-09-07T07:55:47;99219.31;;;24.01;62.44
76106;BME280;64832;45.274;5.880;2023-09-07T07:58:14;99218.25;;;24.02;62.58
76106;BME280;64832;45.274;5.880;2023-09-07T08:00:39;99212.25;;;24.05;62.33
76106;BME280;64832;45.274;5.880;2023-09-07T08:03:13;99220.16;;;24.07;62.24
76106;BME280;64832;45.274;5.880;2023-09-07T08:05:38;99215.53;;;24.07;62.10
76106;BME280;64832;45.274;5.880;2023-09-07T08:08:05;99212.50;;;24.09;62.08
76106;BME280;64832;45.274;5.880;2023-09-07T08:10:33;99215.84;;;24.11;61.98
76106;BME280;64832;45.274;5.880;2023-09-07T08:12:59;99212.28;;;24.10;62.00
76106;BME280;64832;45.274;5.880;2023-09-07T08:15:24;99214.50;;;24.13;61.91
76106;BME280;64832;45.274;5.880;2023-09-07T08:17:51;99216.94;;;24.15;62.15
76106;BME280;64832;45.274;5.880;2023-09-07T08:20:16;99215.59;;;24.17;62.34
76106;BME280;64832;45.274;5.880;2023-09-07T08:22:42;99210.69;;;24.19;62.09
76106;BME280;64832;45.274;5.880;2023-09-07T08:25:08;99211.50;;;24.20;62.44
76106;BME280;64832;45.274;5.880;2023-09-07T08:27:34;99215.38;;;24.24;62.64
76106;BME280;64832;45.274;5.880;2023-09-07T08:29:59;99215.09;;;24.30;62.59
76106;BME280;64832;45.274;5.880;2023-09-07T08:32:25;99205.28;;;24.34;62.52
76106;BME280;64832;45.274;5.880;2023-09-07T08:34:50;99210.75;;;24.39;62.76
76106;BME280;64832;45.274;5.880;2023-09-07T08:37:21;99203.09;;;24.41;62.51
76106;BME280;64832;45.274;5.880;2023-09-07T08:39:47;99200.41;;;24.46;62.36
76106;BME280;64832;45.274;5.880;2023-09-07T08:42:12;99210.53;;;24.51;62.59
76106;BME280;64832;45.274;5.880;2023-09-07T08:44:40;99200.72;;;24.55;62.46
76106;BME280;64832;45.274;5.880;2023-09-07T08:47:08;99205.38;;;24.60;62.80
76106;BME280;64832;45.274;5.880;2023-09-07T08:49:34;99211.38;;;24.62;62.76
76106;BME280;64832;45.274;5.880;2023-09-07T08:52:02;99201.56;;;24.66;62.77
76106;BME280;64832;45.274;5.880;2023-09-07T08:54:28;99206.50;;;24.69;62.69
76106;BME280;64832;45.274;5.880;2023-09-07T08:56:53;99201.56;;;24.71;62.64
76106;BME280;64832;45.274;5.880;2023-09-07T08:59:22;99196.63;;;24.73;62.40
76106;BME280;64832;45.274;5.880;2023-09-07T09:01:47;99202.41;;;24.76;62.31
76106;BME280;64832;45.274;5.880;2023-09-07T09:04:13;99196.63;;;24.78;61.93
76106;BME280;64832;45.274;5.880;2023-09-07T09:06:39;99199.69;;;24.81;62.38
76106;BME280;64832;45.274;5.880;2023-09-07T09:09:04;99192.84;;;24.84;62.29
76106;BME280;64832;45.274;5.880;2023-09-07T09:11:32;99197.50;;;24.88;62.18
76106;BME280;64832;45.274;5.880;2023-09-07T09:13:58;99191.22;;;24.88;62.12
76106;BME280;64832;45.274;5.880;2023-09-07T09:16:23;99187.13;;;24.90;62.09
76106;BME280;64832;45.274;5.880;2023-09-07T09:18:54;99190.41;;;24.92;62.00
76106;BME280;64832;45.274;5.880;2023-09-07T09:21:23;99185.47;;;24.94;61.89
76106;BME280;64832;45.274;5.880;2023-09-07T09:23:51;99189.56;;;24.97;61.67
76106;BME280;64832;45.274;5.880;2023-09-07T09:26:18;99184.66;;;24.99;61.80
76106;BME280;64832;45.274;5.880;2023-09-07T09:28:44;99182.47;;;25.01;61.68
76106;BME280;64832;45.274;5.880;2023-09-07T09:31:13;99175.91;;;25.02;61.37
76106;BME280;64832;45.274;5.880;2023-09-07T09:33:40;99184.38;;;25.05;61.63
76106;BME280;64832;45.274;5.880;2023-09-07T09:36:06;99177.81;;;25.06;61.48
76106;BME280;64832;45.274;5.880;2023-09-07T09:38:33;99174.53;;;25.09;61.29
76106;BME280;64832;45.274;5.880;2023-09-07T09:40:59;99170.97;;;25.09;61.32
76106;BME280;64832;45.274;5.880;2023-09-07T09:43:25;99166.03;;;25.11;61.26
76106;BME280;64832;45.274;5.880;2023-09-07T09:45:52;99166.03;;;25.11;61.01
76106;BME280;64832;45.274;5.880;2023-09-07T09:48:21;99174.53;;;25.15;61.53
76106;BME280;64832;45.274;5.880;2023-09-07T09:50:48;99169.06;;;25.15;61.35
76106;BME280;64832;45.274;5.880;2023-09-07T09:53:15;99165.25;;;25.16;61.41
76106;BME280;64832;45.274;5.880;2023-09-07T09:55:52;99169.06;;;25.15;61.20
76106;BME280;64832;45.274;5.880;2023-09-07T09:58:18;99166.03;;;25.16;61.17
76106;BME280;64832;45.274;5.880;2023-09-07T10:00:45;99160.31;;;25.18;61.55
76106;BME280;64832;45.274;5.880;2023-09-07T10:03:24;99164.69;;;25.19;61.92
76106;BME280;64832;45.274;5.880;2023-09-07T10:05:52;99157.56;;;25.18;62.22
76106;BME280;64832;45.274;5.880;2023-09-07T10:08:19;99156.47;;;25.19;62.30
76106;BME280;64832;45.274;5.880;2023-09-07T10:10:48;99149.34;;;25.18;62.39
76106;BME280;64832;45.274;5.880;2023-09-07T10:13:15;99160.31;;;25.18;62.53
76106;BME280;64832;45.274;5.880;2023-09-07T10:15:41;99149.59;;;25.16;63.46
76106;BME280;64832;45.274;5.880;2023-09-07T10:18:15;99152.91;;;25.18;63.74
76106;BME280;64832;45.274;5.880;2023-09-07T10:20:54;99143.06;;;25.17;63.94
76106;BME280;64832;45.274;5.880;2023-09-07T10:23:22;99143.59;;;25.14;64.42
76106;BME280;64832;45.274;5.880;2023-09-07T10:25:52;99139.22;;;25.13;64.18
76106;BME280;64832;45.274;5.880;2023-09-07T10:28:20;99140.84;;;25.14;64.14
76106;BME280;64832;45.274;5.880;2023-09-07T10:31:06;99136.75;;;25.17;64.57
76106;BME280;64832;45.274;5.880;2023-09-07T10:33:33;99130.72;;;25.15;64.79
76106;BME280;64832;45.274;5.880;2023-09-07T10:35:59;99137.03;;;25.15;64.66
76106;BME280;64832;45.274;5.880;2023-09-07T10:38:25;99127.16;;;25.14;64.87
76106;BME280;64832;45.274;5.880;2023-09-07T10:40:58;99132.38;;;25.16;64.81
76106;BME280;64832;45.274;5.880;2023-09-07T10:43:31;99126.91;;;25.16;64.63
76106;BME280;64832;45.274;5.880;2023-09-07T10:45:58;99128.81;;;25.15;65.26
76106;BME280;64832;45.274;5.880;2023-09-07T10:48:26;99120.06;;;25.13;64.99
76106;BME280;64832;45.274;5.880;2023-09-07T10:50:54;99122.53;;;25.15;65.23
76106;BME280;64832;45.274;5.880;2023-09-07T10:53:31;99115.97;;;25.16;65.40
76106;BME280;64832;45.274;5.880;2023-09-07T10:55:59;99111.28;;;25.16;65.43
76106;BME280;64832;45.274;5.880;2023-09-07T10:58:32;99103.91;;;25.17;65.35
76106;BME280;64832;45.274;5.880;2023-09-07T11:00:58;99108.00;;;25.14;65.72
76106;BME280;64832;45.274;5.880;2023-09-07T11:03:25;99110.50;;;25.16;65.87
76106;BME280;64832;45.274;5.880;2023-09-07T11:06:00;99101.97;;;25.17;65.91
76106;BME280;64832;45.274;5.880;2023-09-07T11:08:29;99104.72;;;25.17;66.07
76106;BME280;64832;45.274;5.880;2023-09-07T11:10:54;99088.84;;;25.14;65.76
76106;BME280;64832;45.274;5.880;2023-09-07T11:13:21;99093.78;;;25.17;66.14
76106;BME280;64832;45.274;5.880;2023-09-07T11:15:46;99092.94;;;25.17;66.20
76106;BME280;64832;45.274;5.880;2023-09-07T11:18:12;99075.44;;;25.18;65.73
76106;BME280;64832;45.274;5.880;2023-09-07T11:20:38;99068.31;;;25.11;65.88
76106;BME280;64832;45.274;5.880;2023-09-07T11:23:06;99079.00;;;25.18;65.87
76106;BME280;64832;45.274;5.880;2023-09-07T11:25:36;99066.41;;;25.17;65.75
76106;BME280;64832;45.274;5.880;2023-09-07T11:28:06;99074.34;;;25.19;65.58
76106;BME280;64832;45.274;5.880;2023-09-07T11:30:34;99067.75;;;25.20;65.55
76106;BME280;64832;45.274;5.880;2023-09-07T11:33:05;99069.41;;;25.21;65.59
76106;BME280;64832;45.274;5.880;2023-09-07T11:35:31;99065.00;;;25.20;65.06
76106;BME280;64832;45.274;5.880;2023-09-07T11:37:56;99063.94;;;25.21;64.98
76106;BME280;64832;45.274;5.880;2023-09-07T11:40:22;99057.63;;;25.20;64.86
76106;BME280;64832;45.274;5.880;2023-09-07T11:42:47;99055.19;;;25.19;65.03
76106;BME280;64832;45.274;5.880;2023-09-07T11:45:13;99057.34;;;25.22;65.04
76106;BME280;64832;45.274;5.880;2023-09-07T11:47:39;99066.38;;;25.22;64.82
76106;BME280;64832;45.274;5.880;2023-09-07T11:50:05;99053.81;;;25.21;64.94
76106;BME280;64832;45.274;5.880;2023-09-07T11:52:32;99056.25;;;25.23;64.91
76106;BME280;64832;45.274;5.880;2023-09-07T11:54:57;99056.78;;;25.25;64.76
76106;BME280;64832;45.274;5.880;2023-09-07T11:57:23;99053.25;;;25.24;64.81
76106;BME280;64832;45.274;5.880;2023-09-07T11:59:48;99044.47;;;25.22;64.62
76106;BME280;64832;45.274;5.880;2023-09-07T12:02:14;99046.41;;;25.27;64.87
76106;BME280;64832;45.274;5.880;2023-09-07T12:04:40;99040.91;;;25.27;64.67
76106;BME280;64832;45.274;5.880;2023-09-07T12:07:06;99043.38;;;25.28;65.07
76106;BME280;64832;45.274;5.880;2023-09-07T12:09:31;99034.31;;;25.28;65.77
76106;BME280;64832;45.274;5.880;2023-09-07T12:11:56;99031.59;;;25.28;65.77
76106;BME280;64832;45.274;5.880;2023-09-07T12:14:22;99037.88;;;25.28;65.75
76106;BME280;64832;45.274;5.880;2023-09-07T12:16:48;99038.72;;;25.29;65.44
76106;BME280;64832;45.274;5.880;2023-09-07T12:19:13;99039.53;;;25.29;65.53
76106;BME280;64832;45.274;5.880;2023-09-07T12:21:38;99029.69;;;25.28;65.42
76106;BME280;64832;45.274;5.880;2023-09-07T12:24:04;99030.50;;;25.29;65.91
76106;BME280;64832;45.274;5.880;2023-09-07T12:26:30;99024.72;;;25.30;65.67
76106;BME280;64832;45.274;5.880;2023-09-07T12:28:56;99021.75;;;25.27;65.49
76106;BME280;64832;45.274;5.880;2023-09-07T12:31:22;99025.56;;;25.31;65.66
76106;BME280;64832;45.274;5.880;2023-09-07T12:33:47;99025.56;;;25.31;66.05
76106;BME280;64832;45.274;5.880;2023-09-07T12:36:13;99017.09;;;25.32;65.83
76106;BME280;64832;45.274;5.880;2023-09-07T12:38:38;99025.56;;;25.31;65.67
76106;BME280;64832;45.274;5.880;2023-09-07T12:41:03;99017.34;;;25.31;66.17
76106;BME280;64832;45.274;5.880;2023-09-07T12:43:29;99008.03;;;25.32;65.78
76106;BME280;64832;45.274;5.880;2023-09-07T12:45:54;99011.88;;;25.31;66.09
76106;BME280;64832;45.274;5.880;2023-09-07T12:48:20;99000.66;;;25.32;66.47
76106;BME280;64832;45.274;5.880;2023-09-07T12:50:45;99003.38;;;25.32;66.16
76106;BME280;64832;45.274;5.880;2023-09-07T12:53:11;99005.84;;;25.34;66.21
76106;BME280;64832;45.274;5.880;2023-09-07T12:55:36;98994.06;;;25.33;66.71